createdAt,value
2022-10-22T00:01:09.435Z,100126.80
2022-10-22T00:03:39.927Z,100137.34
2022-10-22T00:06:07.903Z,100134.45
2022-10-22T00:08:35.794Z,100131.09
2022-10-22T00:11:22.061Z,100128.14
2022-10-22T00:13:51.139Z,100123.12
2022-10-22T00:16:19.033Z,100121.55
2022-10-22T00:18:46.904Z,100119.70
2022-10-22T00:21:14.669Z,100118.52
2022-10-22T00:23:43.486Z,100121.00
2022-10-22T00:26:12.098Z,100123.38
2022-10-22T00:28:40.044Z,100123.27
2022-10-22T00:31:08.061Z,100118.48
2022-10-22T00:33:35.752Z,100112.86
2022-10-22T00:36:03.738Z,100101.15
2022-10-22T00:38:31.507Z,100095.06
2022-10-22T00:40:59.328Z,100090.99
2022-10-22T00:43:27.850Z,100085.54
2022-10-22T00:45:55.735Z,100089.11
2022-10-22T00:48:27.308Z,100087.13
2022-10-22T00:51:08.366Z,100086.42
2022-10-22T00:53:40.879Z,100089.08
2022-10-22T00:56:10.335Z,100084.47
2022-10-22T00:58:44.025Z,100085.36
2022-10-22T01:01:16.703Z,100085.55
2022-10-22T01:03:44.792Z,100079.55
2022-10-22T01:06:20.147Z,100076.00
2022-10-22T01:09:06.100Z,100077.11
2022-10-22T01:11:52.838Z,100072.28
2022-10-22T01:14:52.926Z,100072.55
2022-10-22T01:17:26.324Z,100071.24
2022-10-22T01:20:06.998Z,100067.55
2022-10-22T01:22:47.751Z,100068.44
2022-10-22T01:25:25.299Z,100059.40
2022-10-22T01:28:11.442Z,100059.58
2022-10-22T01:30:40.732Z,100057.76
2022-10-22T01:33:12.711Z,100054.39
2022-10-22T01:35:44.565Z,100051.34
2022-10-22T01:38:17.485Z,100055.20
2022-10-22T01:40:47.479Z,100053.17
2022-10-22T01:43:15.681Z,100055.90
2022-10-22T01:45:48.747Z,100058.16
2022-10-22T01:48:35.133Z,100060.45
2022-10-22T01:51:05.873Z,100064.30
2022-10-22T01:53:41.190Z,100064.62
2022-10-22T01:56:36.343Z,100063.34
2022-10-22T01:59:08.572Z,100059.19
2022-10-22T02:01:59.241Z,100054.86
2022-10-22T02:04:33.877Z,100050.95
2022-10-22T02:07:06.475Z,100046.16
2022-10-22T02:09:35.870Z,100039.48
2022-10-22T02:12:07.007Z,100037.95
2022-10-22T02:14:39.562Z,100042.79
2022-10-22T02:17:13.516Z,100042.26
2022-10-22T02:19:55.919Z,100043.84
2022-10-22T02:22:26.349Z,100041.70
2022-10-22T02:24:54.037Z,100034.48
2022-10-22T02:27:25.835Z,100037.45
2022-10-22T02:30:28.056Z,100038.04
2022-10-22T02:33:03.372Z,100039.46
2022-10-22T02:35:32.440Z,100039.60
2022-10-22T02:38:01.763Z,100041.45
2022-10-22T02:40:31.487Z,100046.80
2022-10-22T02:42:59.459Z,100049.55
2022-10-22T02:45:27.451Z,100049.44
2022-10-22T02:47:55.219Z,100042.37
2022-10-22T02:50:22.931Z,100042.66
2022-10-22T02:52:51.152Z,100040.59
2022-10-22T02:55:19.003Z,100046.33
2022-10-22T02:57:48.519Z,100048.35
2022-10-22T03:00:18.458Z,100046.08
2022-10-22T03:02:46.921Z,100046.98
2022-10-22T03:05:15.743Z,100043.17
2022-10-22T03:09:01.046Z,100039.92
2022-10-22T06:21:31.208Z,100016.84
2022-10-22T06:24:00.725Z,100018.40
2022-10-22T06:26:29.802Z,100018.49
2022-10-22T06:28:58.804Z,100019.77
2022-10-22T06:31:27.999Z,100017.79
2022-10-22T06:33:57.213Z,100013.83
2022-10-22T06:36:25.199Z,100030.91
2022-10-22T06:38:54.999Z,100035.26
2022-10-22T06:41:28.568Z,100029.34
2022-10-22T06:43:58.079Z,100028.35
2022-10-22T06:46:26.864Z,100018.30
2022-10-22T06:48:58.044Z,100020.00
2022-10-22T06:51:27.853Z,100028.24
2022-10-22T06:53:56.940Z,100028.41
2022-10-22T06:56:27.248Z,100037.72
2022-10-22T06:58:57.095Z,100038.24
2022-10-22T07:01:27.678Z,100030.11
2022-10-22T07:03:55.946Z,100034.59
2022-10-22T07:06:25.927Z,100055.16
2022-10-22T07:08:55.850Z,100065.08
2022-10-22T07:11:43.058Z,100074.08
2022-10-22T07:14:12.041Z,100075.96
2022-10-22T07:16:43.207Z,100074.29
2022-10-22T07:19:12.216Z,100075.10
2022-10-22T07:21:40.072Z,100074.50
2022-10-22T07:24:08.457Z,100073.41
2022-10-22T07:26:37.150Z,100070.58
2022-10-22T07:29:05.225Z,100067.66
2022-10-22T07:31:33.014Z,100060.17
2022-10-22T07:34:00.857Z,100057.90
2022-10-22T07:36:28.726Z,100052.09
2022-10-22T07:38:58.399Z,100049.70
2022-10-22T07:41:28.704Z,100045.20
2022-10-22T07:43:58.225Z,100047.94
2022-10-22T07:46:27.358Z,100045.34
2022-10-22T07:48:55.475Z,100050.03
2022-10-22T07:51:23.639Z,100053.58
2022-10-22T07:53:51.816Z,100051.30
2022-10-22T07:56:45.158Z,100060.83
2022-10-22T07:59:12.927Z,100066.84
2022-10-22T08:01:40.790Z,100068.16
2022-10-22T08:04:10.054Z,100067.11
2022-10-22T08:06:38.792Z,100062.74
2022-10-22T08:09:07.081Z,100063.72
2022-10-22T08:11:35.722Z,100064.41
2022-10-22T08:14:04.052Z,100070.48
2022-10-22T08:16:32.025Z,100070.58
2022-10-22T08:18:59.972Z,100074.42
2022-10-22T08:21:27.859Z,100080.66
2022-10-22T08:23:55.790Z,100080.20
2022-10-22T08:26:24.013Z,100079.05
2022-10-22T08:28:51.887Z,100079.43
2022-10-22T08:31:19.652Z,100081.30
2022-10-22T08:33:47.407Z,100081.91
2022-10-22T08:36:15.720Z,100075.76
2022-10-22T08:38:43.536Z,100070.98
2022-10-22T08:41:18.440Z,100072.64
2022-10-22T08:44:05.001Z,100066.59
2022-10-22T08:47:03.189Z,100064.98
2022-10-22T08:49:39.851Z,100069.40
2022-10-22T08:52:18.199Z,100075.65
2022-10-22T08:54:49.039Z,100070.48
2022-10-22T08:57:41.864Z,100072.85
2022-10-22T09:00:19.346Z,100079.89
2022-10-22T09:02:53.653Z,100080.27
2022-10-22T09:05:34.403Z,100084.33
2022-10-22T09:08:02.677Z,100090.73
2022-10-22T09:10:36.302Z,100097.25
2022-10-22T09:13:04.342Z,100097.59
2022-10-22T09:15:32.104Z,100100.35
2022-10-22T09:18:31.200Z,100100.01
2022-10-22T09:22:15.117Z,100098.20
2022-10-22T09:24:48.734Z,100096.07
2022-10-22T09:27:26.411Z,100097.67
2022-10-22T09:29:54.087Z,100095.48
2022-10-22T09:32:21.902Z,100086.31
2022-10-22T09:34:55.205Z,100082.36
2022-10-22T09:40:47.512Z,100075.52
2022-10-22T09:43:15.606Z,100071.40
2022-10-22T09:45:44.720Z,100065.86
2022-10-22T09:48:15.354Z,100063.95
2022-10-22T09:50:55.091Z,100062.73
2022-10-22T09:53:28.746Z,100068.05
2022-10-22T09:55:59.640Z,100073.46
2022-10-22T09:58:28.671Z,100073.06
2022-10-22T10:01:00.720Z,100073.07
2022-10-22T10:03:32.134Z,100074.58
2022-10-22T10:06:06.191Z,100078.06
2022-10-22T10:08:34.324Z,100087.82
2022-10-22T10:11:10.705Z,100083.22
2022-10-22T10:13:56.878Z,100081.41
2022-10-22T10:16:59.204Z,100075.83
2022-10-22T10:19:47.009Z,100081.50
2022-10-22T10:22:32.196Z,100087.36
2022-10-22T10:25:12.902Z,100092.05
2022-10-22T10:27:53.750Z,100096.38
2022-10-22T10:30:25.774Z,100100.63
2022-10-22T10:33:02.454Z,100097.05
2022-10-22T10:35:42.378Z,100086.35
2022-10-22T10:38:32.415Z,100087.02
2022-10-22T10:41:08.158Z,100090.11
2022-10-22T10:43:52.491Z,100094.23
2022-10-22T10:46:40.250Z,100101.59
2022-10-22T10:49:19.053Z,100104.95
2022-10-22T10:51:58.743Z,100106.77
2022-10-22T10:54:40.813Z,100105.29
2022-10-22T10:57:33.452Z,100107.76
2022-10-22T11:00:07.748Z,100109.99
2022-10-22T11:03:11.815Z,100101.98
2022-10-22T11:05:44.433Z,100104.22
2022-10-22T11:08:20.254Z,100095.70
2022-10-22T11:10:54.485Z,100092.20
2022-10-22T11:13:45.348Z,100084.72
2022-10-22T11:16:31.262Z,100076.14
2022-10-22T11:19:59.831Z,100069.27
2022-10-22T11:22:36.783Z,100067.98
2022-10-22T11:25:13.596Z,100067.41
2022-10-22T11:27:54.213Z,100073.25
2022-10-22T11:30:24.176Z,100073.80
2022-10-22T11:32:57.295Z,100075.52
2022-10-22T11:35:31.794Z,100076.61
2022-10-22T11:38:01.022Z,100073.14
2022-10-22T11:40:28.758Z,100075.84
2022-10-22T11:43:05.239Z,100074.91
2022-10-22T11:45:42.513Z,100070.23
2022-10-22T11:48:10.284Z,100070.05
2022-10-22T11:50:56.695Z,100066.94
2022-10-22T11:53:36.392Z,100067.53
2022-10-22T11:56:06.953Z,100065.04
2022-10-22T11:58:42.209Z,100059.61
2022-10-22T12:01:10.061Z,100054.88
2022-10-22T12:03:44.025Z,100053.02
2022-10-22T12:06:19.821Z,100050.48
2022-10-22T12:08:50.612Z,100052.84
2022-10-22T12:11:37.462Z,100046.46
2022-10-22T12:14:16.481Z,100044.15
2022-10-22T12:16:57.541Z,100042.39
2022-10-22T12:19:40.838Z,100043.52
2022-10-22T12:22:24.098Z,100044.66
2022-10-22T12:24:54.629Z,100041.25
2022-10-22T12:27:27.627Z,100040.65
2022-10-22T12:30:00.295Z,100038.50
2022-10-22T12:32:37.377Z,100037.20
2022-10-22T12:35:09.259Z,100035.45
2022-10-22T12:37:38.374Z,100038.38
2022-10-22T12:40:22.724Z,100036.52
2022-10-22T12:43:16.150Z,100036.08
2022-10-22T12:45:46.127Z,100036.69
2022-10-22T12:48:28.387Z,100037.54
2022-10-22T12:50:59.781Z,100034.02
2022-10-22T12:53:32.191Z,100034.58
2022-10-22T12:56:04.362Z,100035.62
2022-10-22T12:58:48.789Z,100039.58
2022-10-22T13:01:18.570Z,100035.33
2022-10-22T13:03:50.695Z,100033.39
2022-10-22T13:06:18.347Z,100047.88
2022-10-22T13:09:19.118Z,100055.83
2022-10-22T13:11:58.268Z,100055.33
2022-10-22T13:14:31.765Z,100053.91
2022-10-22T13:17:18.531Z,100060.42
2022-10-22T13:20:20.461Z,100064.06
2022-10-22T13:23:03.370Z,100068.08
2022-10-22T13:25:37.386Z,100064.23
2022-10-22T13:28:08.225Z,100059.48
2022-10-22T13:30:38.126Z,100056.17
2022-10-22T13:33:20.247Z,100057.09
2022-10-22T13:35:48.133Z,100060.02
2022-10-22T13:38:19.643Z,100053.67
2022-10-22T13:40:48.146Z,100058.56
2022-10-22T13:43:16.781Z,100058.58
2022-10-22T13:45:46.123Z,100058.68
2022-10-22T13:48:16.264Z,100057.94
2022-10-22T13:50:44.132Z,100051.00
2022-10-22T13:53:37.945Z,100043.80
2022-10-22T13:56:05.725Z,100043.20
2022-10-22T13:58:33.433Z,100045.65
2022-10-22T14:01:02.630Z,100043.06
2022-10-22T14:03:34.398Z,100039.56
2022-10-22T14:06:02.264Z,100037.58
2022-10-22T14:08:30.097Z,100034.33
2022-10-22T14:10:57.922Z,100032.85
2022-10-22T14:13:26.710Z,100032.59
2022-10-22T14:15:54.576Z,100034.92
2022-10-22T14:18:27.560Z,100032.79
2022-10-22T14:20:58.960Z,100025.23
2022-10-22T14:23:31.539Z,100025.27
2022-10-22T14:26:00.821Z,100024.81
2022-10-22T14:28:31.381Z,100023.92
2022-10-22T14:31:00.228Z,100026.24
2022-10-22T14:33:32.109Z,100019.89
2022-10-22T14:36:01.277Z,100020.84
2022-10-22T14:38:29.668Z,100021.56
2022-10-22T14:40:59.583Z,100026.66
2022-10-22T14:43:31.020Z,100025.12
2022-10-22T14:45:59.400Z,100027.38
2022-10-22T14:48:27.103Z,100030.81
2022-10-22T14:50:55.231Z,100030.93
2022-10-22T14:53:23.025Z,100031.55
2022-10-22T14:55:51.622Z,100033.00
2022-10-22T14:58:19.571Z,100032.42
2022-10-22T15:00:47.315Z,100028.15
2022-10-22T15:03:15.030Z,100031.30
2022-10-22T15:05:44.943Z,100031.52
2022-10-22T15:08:14.759Z,100029.14
2022-10-22T15:10:42.774Z,100033.73
2022-10-22T15:13:10.967Z,100034.98
2022-10-22T15:15:42.156Z,100037.55
2022-10-22T15:18:09.928Z,100041.88
2022-10-22T15:20:37.749Z,100047.63
2022-10-22T15:23:05.523Z,100050.39
2022-10-22T15:25:33.436Z,100047.04
2022-10-22T15:28:09.165Z,100050.52
2022-10-22T15:30:37.823Z,100050.70
2022-10-22T15:33:06.454Z,100053.56
2022-10-22T15:35:34.437Z,100052.08
2022-10-22T15:38:02.630Z,100052.17
2022-10-22T15:40:30.338Z,100050.45
2022-10-22T15:42:58.173Z,100048.53
2022-10-22T15:45:25.854Z,100050.76
2022-10-22T15:47:53.603Z,100050.73
2022-10-22T15:50:21.356Z,100052.55
2022-10-22T15:52:49.084Z,100052.23
2022-10-22T15:55:16.999Z,100053.31
2022-10-22T15:57:45.170Z,100054.33
2022-10-22T16:00:14.032Z,100051.66
2022-10-22T16:02:43.888Z,100056.80
2022-10-22T16:05:11.655Z,100059.98
2022-10-22T16:07:39.700Z,100062.19
2022-10-22T16:10:08.204Z,100065.29
2022-10-22T16:12:36.079Z,100070.23
2022-10-22T16:15:04.587Z,100070.73
2022-10-22T16:17:33.245Z,100069.88
2022-10-22T16:20:01.072Z,100069.65
2022-10-22T16:22:28.963Z,100067.73
2022-10-22T16:24:56.668Z,100070.28
2022-10-22T16:27:24.440Z,100073.14
2022-10-22T16:29:52.103Z,100078.08
2022-10-22T16:32:19.781Z,100079.77
2022-10-22T16:34:47.507Z,100080.27
2022-10-22T16:37:15.206Z,100083.17
2022-10-22T16:39:42.979Z,100085.23
2022-10-22T16:42:10.744Z,100082.52
2022-10-22T16:44:38.441Z,100085.86
2022-10-22T16:47:06.182Z,100086.73
2022-10-22T16:49:33.870Z,100085.09
2022-10-22T16:52:01.554Z,100090.23
2022-10-22T16:54:29.587Z,100093.88
2022-10-22T16:56:57.357Z,100093.76
2022-10-22T16:59:25.228Z,100095.28
2022-10-22T17:01:54.667Z,100096.38
2022-10-22T17:04:23.670Z,100098.45
2022-10-22T17:06:51.503Z,100094.81
2022-10-22T17:09:19.562Z,100091.87
2022-10-22T17:11:47.552Z,100092.94
2022-10-22T17:14:15.248Z,100093.46
2022-10-22T17:16:43.394Z,100093.23
2022-10-22T17:19:14.536Z,100094.19
2022-10-22T17:21:42.892Z,100095.14
2022-10-22T17:24:10.700Z,100095.57
2022-10-22T17:26:38.564Z,100092.19
2022-10-22T17:29:06.948Z,100097.27
2022-10-22T17:31:39.958Z,100094.36
2022-10-22T17:34:14.768Z,100096.73
2022-10-22T17:36:43.462Z,100096.12
2022-10-22T17:39:15.725Z,100096.00
2022-10-22T17:41:43.494Z,100099.21
2022-10-22T17:44:12.408Z,100096.76
2022-10-22T17:46:40.136Z,100095.63
2022-10-22T17:49:19.754Z,100097.25
2022-10-22T17:51:48.286Z,100094.91
2022-10-22T17:54:16.082Z,100098.35
2022-10-22T17:56:43.791Z,100101.15
2022-10-22T17:59:14.251Z,100102.65
2022-10-22T18:01:45.780Z,100106.40
2022-10-22T18:04:16.583Z,100108.09
2022-10-22T18:06:47.061Z,100107.41
2022-10-22T18:09:18.485Z,100106.39
2022-10-22T18:11:49.018Z,100105.61
2022-10-22T18:14:18.181Z,100109.61
2022-10-22T18:16:46.922Z,100104.82
2022-10-22T18:19:17.469Z,100104.34
2022-10-22T18:21:45.762Z,100103.88
2022-10-22T18:24:15.437Z,100106.39
2022-10-22T18:26:43.420Z,100109.48
2022-10-22T18:29:16.946Z,100106.06
2022-10-22T18:31:45.330Z,100102.89
2022-10-22T18:34:16.546Z,100108.97
2022-10-22T18:36:46.905Z,100106.60
2022-10-22T18:39:15.902Z,100106.30
2022-10-22T18:41:43.874Z,100106.30
2022-10-22T18:44:14.117Z,100106.83
2022-10-22T18:46:42.858Z,100104.16
2022-10-22T18:49:18.338Z,100107.91
2022-10-22T18:51:52.536Z,100110.27
2022-10-22T18:54:24.011Z,100108.49
2022-10-22T18:56:55.540Z,100109.23
2022-10-22T18:59:27.319Z,100111.44
2022-10-22T19:01:59.453Z,100111.83
2022-10-22T19:04:33.282Z,100112.72
2022-10-22T19:07:01.208Z,100115.75
2022-10-22T19:09:29.154Z,100117.16
2022-10-22T19:11:56.909Z,100117.80
2022-10-22T19:14:24.651Z,100119.88
2022-10-22T19:16:52.436Z,100118.11
2022-10-22T19:19:21.995Z,100121.33
2022-10-22T19:21:50.153Z,100120.62
2022-10-22T19:24:19.845Z,100117.65
2022-10-22T19:26:49.047Z,100119.48
2022-10-22T19:29:19.724Z,100122.08
2022-10-22T19:31:50.616Z,100126.23
2022-10-22T19:34:19.620Z,100128.65
2022-10-22T19:36:47.953Z,100131.82
2022-10-22T19:39:16.693Z,100137.65
2022-10-22T19:41:45.496Z,100135.10
2022-10-22T19:44:13.554Z,100140.07
2022-10-22T19:46:41.294Z,100142.02
2022-10-22T19:49:10.003Z,100143.58
2022-10-22T19:51:38.094Z,100147.34
2022-10-22T19:54:10.248Z,100146.90
2022-10-22T19:56:38.443Z,100154.66
2022-10-22T19:59:07.031Z,100156.38
2022-10-22T20:01:34.988Z,100159.40
2022-10-22T20:04:03.493Z,100164.46
2022-10-22T20:06:31.230Z,100166.80
2022-10-22T20:08:59.171Z,100169.16
2022-10-22T20:11:29.764Z,100175.70
2022-10-22T20:13:58.251Z,100178.02
2022-10-22T20:16:29.899Z,100178.57
2022-10-22T20:19:03.872Z,100187.36
2022-10-22T20:21:31.895Z,100189.65
2022-10-22T20:24:00.482Z,100190.55
2022-10-22T20:26:29.223Z,100190.77
2022-10-22T20:28:58.151Z,100192.64
2022-10-22T20:31:28.663Z,100194.44
2022-10-22T20:33:58.755Z,100194.17
2022-10-22T20:36:27.617Z,100192.47
2022-10-22T20:39:03.670Z,100195.20
2022-10-22T20:41:34.094Z,100191.62
2022-10-22T20:44:02.081Z,100193.40
2022-10-22T20:46:31.764Z,100195.05
2022-10-22T20:49:27.186Z,100196.00
2022-10-22T20:51:54.880Z,100200.69
2022-10-22T20:54:22.714Z,100203.83
2022-10-22T20:56:50.693Z,100202.08
2022-10-22T20:59:18.864Z,100200.36
2022-10-22T21:01:49.715Z,100201.44
2022-10-22T21:04:19.867Z,100204.98
2022-10-22T21:06:49.950Z,100203.36
2022-10-22T21:09:17.739Z,100201.44
2022-10-22T21:11:46.192Z,100199.69
2022-10-22T21:14:15.903Z,100201.54
2022-10-22T21:16:46.145Z,100207.75
2022-10-22T21:19:13.825Z,100202.82
2022-10-22T21:21:42.061Z,100209.77
2022-10-22T21:24:10.373Z,100213.45
2022-10-22T21:26:39.897Z,100213.36
2022-10-22T21:29:08.469Z,100214.47
2022-10-22T21:31:37.888Z,100214.65
2022-10-22T21:34:05.584Z,100214.98
2022-10-22T21:36:33.393Z,100215.15
2022-10-22T21:39:01.399Z,100216.91
2022-10-22T21:41:29.363Z,100216.00
2022-10-22T21:43:57.129Z,100214.48
2022-10-22T21:46:27.989Z,100215.96
2022-10-22T21:48:58.632Z,100218.67
2022-10-22T21:51:26.796Z,100218.70
2022-10-22T21:53:55.206Z,100220.89
2022-10-22T21:56:29.171Z,100221.37
2022-10-22T21:58:57.054Z,100224.40
2022-10-22T22:01:25.367Z,100224.64
2022-10-22T22:03:53.723Z,100225.84
2022-10-22T22:06:24.663Z,100227.36
2022-10-22T22:08:54.937Z,100229.44
2022-10-22T22:11:26.034Z,100231.33
2022-10-22T22:13:55.609Z,100232.79
2022-10-22T22:16:29.337Z,100235.82
2022-10-22T22:18:59.607Z,100234.27
2022-10-22T22:21:28.046Z,100234.67
2022-10-22T22:23:57.129Z,100239.16
2022-10-22T22:26:29.612Z,100238.37
2022-10-22T22:28:59.790Z,100244.77
2022-10-22T22:31:31.050Z,100245.09
2022-10-22T22:34:13.413Z,100245.45
2022-10-22T22:36:46.980Z,100246.50
2022-10-22T22:39:23.872Z,100250.61
2022-10-22T22:41:51.872Z,100257.04
2022-10-22T22:44:19.599Z,100257.12
2022-10-22T22:46:47.306Z,100259.50
2022-10-22T22:49:15.152Z,100258.89
2022-10-22T22:51:43.552Z,100260.95
2022-10-22T22:54:11.508Z,100265.45
2022-10-22T22:56:39.269Z,100267.71
2022-10-22T22:59:07.164Z,100269.52
2022-10-22T23:01:38.015Z,100273.02
2022-10-22T23:04:11.180Z,100274.67
2022-10-22T23:06:39.499Z,100279.77
2022-10-22T23:09:09.556Z,100278.25
2022-10-22T23:11:38.370Z,100278.16
2022-10-22T23:14:08.240Z,100276.99
2022-10-22T23:16:37.911Z,100277.75
2022-10-22T23:19:06.298Z,100277.36
2022-10-22T23:21:37.022Z,100280.48
2022-10-22T23:24:08.038Z,100284.83
2022-10-22T23:26:39.653Z,100287.72
2022-10-22T23:29:11.960Z,100288.23
2022-10-22T23:31:39.877Z,100291.35
2022-10-22T23:34:09.553Z,100291.41
2022-10-22T23:36:38.934Z,100290.98
2022-10-22T23:39:08.998Z,100292.70
2022-10-22T23:41:36.961Z,100295.15
2022-10-22T23:44:05.757Z,100293.96
2022-10-22T23:46:34.402Z,100292.61
2022-10-22T23:49:02.240Z,100294.64
2022-10-22T23:51:29.957Z,100300.66
2022-10-22T23:53:59.895Z,100300.17
2022-10-22T23:56:28.139Z,100303.00
2022-10-22T23:58:56.997Z,100304.45
